Nordwelle — C4EW2 — position and weather

sailwx.info

Track history (hours):
 
Tides and Currents Weather Stations Pressure Air Temp Water Temp Dewpoint Dewpoint Depression Visibility Wind Speed Wind Dir Waves Ship Positions

Nordwelle

Last reported at 2018-Feb-23 08:21 UTC. Time now 2018-Feb-23 08:43 UTC.
Position N 35°36' E 139°46'.

Length 210 m; beam 30.1 m; draft 11.5 m.

Type: Cargo ship. MMSI: 209597000.

Date/timePositionNaut miles runAvg speedWind from/ knotsBaromVisibWave heightAir tempDewpointWater temp
2018-Feb-23 08:21N 35°36' E 139°46'0 0.0
2018-Feb-23 07:57N 35°36' E 139°46'0 0.1
2018-Feb-23 07:30N 35°36' E 139°46'0 0.0
2018-Feb-23 06:51N 35°36' E 139°46'0 0.0
2018-Feb-23 06:21N 35°36' E 139°46'0 0.0
2018-Feb-23 05:57N 35°36' E 139°46'0 0.0
2018-Feb-23 05:30N 35°36' E 139°46'0 0.0
2018-Feb-23 04:57N 35°36' E 139°46'0 0.0
2018-Feb-23 04:30N 35°36' E 139°46'0 0.1
2018-Feb-23 04:00N 35°36' E 139°46'0 0.0
2018-Feb-23 03:30N 35°36' E 139°46'0 0.1
2018-Feb-23 03:00N 35°36' E 139°46'0 0.0
2018-Feb-23 02:27N 35°36' E 139°46'0 0.0
2018-Feb-23 01:57N 35°36' E 139°46'0 0.0
2018-Feb-23 01:30N 35°36' E 139°46'0 0.0
2018-Feb-23 01:00N 35°36' E 139°46'0 0.1
2018-Feb-23 00:30N 35°36' E 139°46'0 0.0
2018-Feb-23 00:00N 35°36' E 139°46'0 0.0
2018-Feb-22 23:30N 35°36' E 139°46'0 0.0
2018-Feb-22 23:00N 35°36' E 139°46'0 0.0
2018-Feb-22 22:27N 35°36' E 139°46'1 1.6
2018-Feb-22 22:00N 35°36' E 139°47'612.1
2018-Feb-22 21:30N 35°32' E 139°52'713.3
2018-Feb-22 21:00N 35°26' E 139°47'612.2
2018-Feb-22 20:31N 35°23' E 139°41'1 1.4
2018-Feb-22 20:00N 35°24' E 139°41'0 0.0
2018-Feb-22 19:30N 35°24' E 139°41'0 0.0
2018-Feb-22 19:00N 35°24' E 139°41'0 0.0
2018-Feb-22 18:30N 35°24' E 139°41'0 0.0
2018-Feb-22 17:57N 35°24' E 139°41'0 0.0
2018-Feb-22 17:30N 35°24' E 139°41'0 0.0
2018-Feb-22 16:57N 35°24' E 139°41'0 0.0
2018-Feb-22 16:30N 35°24' E 139°41'0 0.0
2018-Feb-22 16:00N 35°24' E 139°41'0 0.0
2018-Feb-22 15:30N 35°24' E 139°41'0 0.0
2018-Feb-22 15:00N 35°24' E 139°41'0 0.0
2018-Feb-22 14:30N 35°24' E 139°41'0 0.0
2018-Feb-22 14:00N 35°24' E 139°41'0 0.0
2018-Feb-22 13:30N 35°24' E 139°41'0 0.0
2018-Feb-22 13:00N 35°24' E 139°41'0 0.0
2018-Feb-22 12:30N 35°24' E 139°41'0 0.0
2018-Feb-22 12:00N 35°24' E 139°41'0 0.0
2018-Feb-22 11:30N 35°24' E 139°41'0 0.0
2018-Feb-22 11:00N 35°24' E 139°41'0 0.0
2018-Feb-22 10:30N 35°24' E 139°41'0 0.0
2018-Feb-22 10:00N 35°24' E 139°41'0 0.0
2018-Feb-22 09:30N 35°24' E 139°41'0 0.1
2018-Feb-22 09:00N 35°24' E 139°41'2 3.0
2018-Feb-22 08:30N 35°23' E 139°41'5 9.7
2018-Feb-22 08:00N 35°18' E 139°44'612.0
2018-Feb-22 07:30N 35°13' E 139°47'510.8
2018-Feb-22 07:00N 35°08' E 139°46'5 9.8
2018-Feb-22 06:30N 35°03' E 139°43'712.8
2018-Feb-22 06:00N 34°57' E 139°41'713.8
2018-Feb-22 05:30N 34°50' E 139°41'715.1
2018-Feb-22 05:00N 34°43' E 139°42'814.6
2018-Feb-22 04:29N 34°35' E 139°42'2 5.0
2018-Feb-22 03:59N 34°33' E 139°41'0 1.0
2018-Feb-22 03:30N 34°33' E 139°42'1 1.3
2018-Feb-22 02:57N 34°34' E 139°41'1 1.2
2018-Feb-22 02:29N 34°34' E 139°41'1 1.5
2018-Feb-22 01:57N 34°35' E 139°41'1 1.6
2018-Feb-22 01:30N 34°35' E 139°41'1 1.6
2018-Feb-22 01:00N 34°36' E 139°40'1 1.3
2018-Feb-22 00:20N 34°37' E 139°40'1 1.6
2018-Feb-21 23:56N 34°37' E 139°40'1 1.4
2018-Feb-21 23:30N 34°38' E 139°40'1 1.4
2018-Feb-21 23:00N 34°38' E 139°39'1 1.3
2018-Feb-21 22:30N 34°39' E 139°39'1 2.4
2018-Feb-21 22:00N 34°38' E 139°39'3 5.2
2018-Feb-21 21:30N 34°35' E 139°39'2 4.0
2018-Feb-21 21:00N 34°33' E 139°39'1 1.8
2018-Feb-21 20:28N 34°34' E 139°39'1 1.4
2018-Feb-21 19:59N 34°35' E 139°40'1 1.7
2018-Feb-21 19:30N 34°36' E 139°39'1 1.1
2018-Feb-21 19:00N 34°36' E 139°39'1 1.2
2018-Feb-21 18:30N 34°37' E 139°39'2 0.8
2018-Feb-21 16:32N 34°38' E 139°37'0 4.0
2018-Feb-21 16:28N 34°38' E 139°37'511.7
2018-Feb-21 16:00N 34°37' E 139°30'714.3
2018-Feb-21 15:30N 34°36' E 139°22'714.2
2018-Feb-21 15:00N 34°35' E 139°13'714.6
2018-Feb-21 14:30N 34°31' E 139°06'714.2
2018-Feb-21 14:00N 34°27' E 138°58'814.7
2018-Feb-21 13:28N 34°24' E 138°50'714.7
2018-Feb-21 13:00N 34°21' E 138°42'714.6
2018-Feb-21 12:30N 34°17' E 138°35'714.0
2018-Feb-21 12:00N 34°14' E 138°27'713.5
2018-Feb-21 11:30N 34°11' E 138°20'713.3
2018-Feb-21 10:59N 34°08' E 138°12'713.3
2018-Feb-21 10:26N 34°04' E 138°04'613.1
2018-Feb-21 09:58N 34°02' E 137°58'  
2018-Feb-18 03:29N 37°40' E 121°56'613.7
2018-Feb-18 03:00N 37°39' E 121°47'713.9
2018-Feb-18 02:30N 37°39' E 121°39'713.7
2018-Feb-18 02:00N 37°38' E 121°30'510.0
2018-Feb-18 01:30N 37°35' E 121°26'2 3.9
2018-Feb-18 00:54N 37°35' E 121°23'0 0.1
2018-Feb-18 00:30N 37°35' E 121°23'0 0.0
2018-Feb-18 00:00N 37°35' E 121°23'0 0.0
2018-Feb-17 23:30N 37°35' E 121°23'0 0.1
2018-Feb-17 23:00N 37°35' E 121°23'0 0.1
2018-Feb-17 22:30N 37°35' E 121°23'0 0.0
2018-Feb-17 22:00N 37°35' E 121°23'0 0.0
2018-Feb-17 21:27N 37°35' E 121°23'0 0.0
2018-Feb-17 21:00N 37°35' E 121°23'0 0.1
2018-Feb-17 20:30N 37°35' E 121°23'0 0.1
2018-Feb-17 20:00N 37°35' E 121°23'0 0.0
2018-Feb-17 19:30N 37°35' E 121°23'0 0.0
2018-Feb-17 19:00N 37°35' E 121°23'0 0.0
2018-Feb-17 18:30N 37°35' E 121°23'0 0.0
2018-Feb-17 18:00N 37°35' E 121°23'0 0.0
2018-Feb-17 17:30N 37°35' E 121°23'0 0.0
2018-Feb-17 17:00N 37°35' E 121°23'0 0.1
2018-Feb-17 16:30N 37°35' E 121°23'0 0.1
2018-Feb-17 16:00N 37°35' E 121°23'0 0.1
2018-Feb-17 15:30N 37°35' E 121°23'0 0.0
2018-Feb-17 15:00N 37°35' E 121°23'0 0.1
2018-Feb-17 14:30N 37°35' E 121°23'1 1.7
2018-Feb-17 14:00N 37°35' E 121°24'4 7.5
2018-Feb-17 13:30N 37°37' E 121°27'612.2
2018-Feb-17 13:00N 37°43' E 121°26'816.9
2018-Feb-17 12:30N 37°51' E 121°22'  
Track history (hours):
 
Tides and Currents Weather Stations Pressure Air Temp Water Temp Dewpoint Dewpoint Depression Visibility Wind Speed Wind Dir Waves Ship Positions

Nordwelle

Last reported at 2018-Feb-23 08:21 UTC. Time now 2018-Feb-23 08:43 UTC.
Position N 35°36' E 139°46'.

Length 210 m; beam 30.1 m; draft 11.5 m.

Type: Cargo ship. MMSI: 209597000.

Date/timePositionNaut miles runAvg speedWind from/ knotsBaromVisibWave heightAir tempDewpointWater temp
2018-Feb-23 08:21N 35°36' E 139°46'0 0.0
2018-Feb-23 07:57N 35°36' E 139°46'0 0.1
2018-Feb-23 07:30N 35°36' E 139°46'0 0.0
2018-Feb-23 06:51N 35°36' E 139°46'0 0.0
2018-Feb-23 06:21N 35°36' E 139°46'0 0.0
2018-Feb-23 05:57N 35°36' E 139°46'0 0.0
2018-Feb-23 05:30N 35°36' E 139°46'0 0.0
2018-Feb-23 04:57N 35°36' E 139°46'0 0.0
2018-Feb-23 04:30N 35°36' E 139°46'0 0.1
2018-Feb-23 04:00N 35°36' E 139°46'0 0.0
2018-Feb-23 03:30N 35°36' E 139°46'0 0.1
2018-Feb-23 03:00N 35°36' E 139°46'0 0.0
2018-Feb-23 02:27N 35°36' E 139°46'0 0.0
2018-Feb-23 01:57N 35°36' E 139°46'0 0.0
2018-Feb-23 01:30N 35°36' E 139°46'0 0.0
2018-Feb-23 01:00N 35°36' E 139°46'0 0.1
2018-Feb-23 00:30N 35°36' E 139°46'0 0.0
2018-Feb-23 00:00N 35°36' E 139°46'0 0.0
2018-Feb-22 23:30N 35°36' E 139°46'0 0.0
2018-Feb-22 23:00N 35°36' E 139°46'0 0.0
2018-Feb-22 22:27N 35°36' E 139°46'1 1.6
2018-Feb-22 22:00N 35°36' E 139°47'612.1
2018-Feb-22 21:30N 35°32' E 139°52'713.3
2018-Feb-22 21:00N 35°26' E 139°47'612.2
2018-Feb-22 20:31N 35°23' E 139°41'1 1.4
2018-Feb-22 20:00N 35°24' E 139°41'0 0.0
2018-Feb-22 19:30N 35°24' E 139°41'0 0.0
2018-Feb-22 19:00N 35°24' E 139°41'0 0.0
2018-Feb-22 18:30N 35°24' E 139°41'0 0.0
2018-Feb-22 17:57N 35°24' E 139°41'0 0.0
2018-Feb-22 17:30N 35°24' E 139°41'0 0.0
2018-Feb-22 16:57N 35°24' E 139°41'0 0.0
2018-Feb-22 16:30N 35°24' E 139°41'0 0.0
2018-Feb-22 16:00N 35°24' E 139°41'0 0.0
2018-Feb-22 15:30N 35°24' E 139°41'0 0.0
2018-Feb-22 15:00N 35°24' E 139°41'0 0.0
2018-Feb-22 14:30N 35°24' E 139°41'0 0.0
2018-Feb-22 14:00N 35°24' E 139°41'0 0.0
2018-Feb-22 13:30N 35°24' E 139°41'0 0.0
2018-Feb-22 13:00N 35°24' E 139°41'0 0.0
2018-Feb-22 12:30N 35°24' E 139°41'0 0.0
2018-Feb-22 12:00N 35°24' E 139°41'0 0.0
2018-Feb-22 11:30N 35°24' E 139°41'0 0.0
2018-Feb-22 11:00N 35°24' E 139°41'0 0.0
2018-Feb-22 10:30N 35°24' E 139°41'0 0.0
2018-Feb-22 10:00N 35°24' E 139°41'0 0.0
2018-Feb-22 09:30N 35°24' E 139°41'0 0.1
2018-Feb-22 09:00N 35°24' E 139°41'2 3.0
2018-Feb-22 08:30N 35°23' E 139°41'5 9.7
2018-Feb-22 08:00N 35°18' E 139°44'612.0
2018-Feb-22 07:30N 35°13' E 139°47'510.8
2018-Feb-22 07:00N 35°08' E 139°46'5 9.8
2018-Feb-22 06:30N 35°03' E 139°43'712.8
2018-Feb-22 06:00N 34°57' E 139°41'713.8
2018-Feb-22 05:30N 34°50' E 139°41'715.1
2018-Feb-22 05:00N 34°43' E 139°42'814.6
2018-Feb-22 04:29N 34°35' E 139°42'2 5.0
2018-Feb-22 03:59N 34°33' E 139°41'0 1.0
2018-Feb-22 03:30N 34°33' E 139°42'1 1.3
2018-Feb-22 02:57N 34°34' E 139°41'1 1.2
2018-Feb-22 02:29N 34°34' E 139°41'1 1.5
2018-Feb-22 01:57N 34°35' E 139°41'1 1.6
2018-Feb-22 01:30N 34°35' E 139°41'1 1.6
2018-Feb-22 01:00N 34°36' E 139°40'1 1.3
2018-Feb-22 00:20N 34°37' E 139°40'1 1.6
2018-Feb-21 23:56N 34°37' E 139°40'1 1.4
2018-Feb-21 23:30N 34°38' E 139°40'1 1.4
2018-Feb-21 23:00N 34°38' E 139°39'1 1.3
2018-Feb-21 22:30N 34°39' E 139°39'1 2.4
2018-Feb-21 22:00N 34°38' E 139°39'3 5.2
2018-Feb-21 21:30N 34°35' E 139°39'2 4.0
2018-Feb-21 21:00N 34°33' E 139°39'1 1.8
2018-Feb-21 20:28N 34°34' E 139°39'1 1.4
2018-Feb-21 19:59N 34°35' E 139°40'1 1.7
2018-Feb-21 19:30N 34°36' E 139°39'1 1.1
2018-Feb-21 19:00N 34°36' E 139°39'1 1.2
2018-Feb-21 18:30N 34°37' E 139°39'2 0.8
2018-Feb-21 16:32N 34°38' E 139°37'0 4.0
2018-Feb-21 16:28N 34°38' E 139°37'511.7
2018-Feb-21 16:00N 34°37' E 139°30'714.3
2018-Feb-21 15:30N 34°36' E 139°22'714.2
2018-Feb-21 15:00N 34°35' E 139°13'714.6
2018-Feb-21 14:30N 34°31' E 139°06'714.2
2018-Feb-21 14:00N 34°27' E 138°58'814.7
2018-Feb-21 13:28N 34°24' E 138°50'714.7
2018-Feb-21 13:00N 34°21' E 138°42'714.6
2018-Feb-21 12:30N 34°17' E 138°35'714.0
2018-Feb-21 12:00N 34°14' E 138°27'713.5
2018-Feb-21 11:30N 34°11' E 138°20'713.3
2018-Feb-21 10:59N 34°08' E 138°12'713.3
2018-Feb-21 10:26N 34°04' E 138°04'613.1
2018-Feb-21 09:58N 34°02' E 137°58'  
2018-Feb-18 03:29N 37°40' E 121°56'613.7
2018-Feb-18 03:00N 37°39' E 121°47'713.9
2018-Feb-18 02:30N 37°39' E 121°39'713.7
2018-Feb-18 02:00N 37°38' E 121°30'510.0
2018-Feb-18 01:30N 37°35' E 121°26'2 3.9
2018-Feb-18 00:54N 37°35' E 121°23'0 0.1
2018-Feb-18 00:30N 37°35' E 121°23'0 0.0
2018-Feb-18 00:00N 37°35' E 121°23'0 0.0
2018-Feb-17 23:30N 37°35' E 121°23'0 0.1
2018-Feb-17 23:00N 37°35' E 121°23'0 0.1
2018-Feb-17 22:30N 37°35' E 121°23'0 0.0
2018-Feb-17 22:00N 37°35' E 121°23'0 0.0
2018-Feb-17 21:27N 37°35' E 121°23'0 0.0
2018-Feb-17 21:00N 37°35' E 121°23'0 0.1
2018-Feb-17 20:30N 37°35' E 121°23'0 0.1
2018-Feb-17 20:00N 37°35' E 121°23'0 0.0
2018-Feb-17 19:30N 37°35' E 121°23'0 0.0
2018-Feb-17 19:00N 37°35' E 121°23'0 0.0
2018-Feb-17 18:30N 37°35' E 121°23'0 0.0
2018-Feb-17 18:00N 37°35' E 121°23'0 0.0
2018-Feb-17 17:30N 37°35' E 121°23'0 0.0
2018-Feb-17 17:00N 37°35' E 121°23'0 0.1
2018-Feb-17 16:30N 37°35' E 121°23'0 0.1
2018-Feb-17 16:00N 37°35' E 121°23'0 0.1
2018-Feb-17 15:30N 37°35' E 121°23'0 0.0
2018-Feb-17 15:00N 37°35' E 121°23'0 0.1
2018-Feb-17 14:30N 37°35' E 121°23'1 1.7
2018-Feb-17 14:00N 37°35' E 121°24'4 7.5
2018-Feb-17 13:30N 37°37' E 121°27'612.2
2018-Feb-17 13:00N 37°43' E 121°26'816.9
2018-Feb-17 12:30N 37°51' E 121°22'  

Dump ship's entire track history